Time;durP1;ratioP1;P1;durP2;ratioP2;P2;SDS_P1;SDS_P2;PMS_P1;PMS_P2;Temp;Humidity;BMP_temperature;BMP_pressure;BME280_temperature;BME280_humidity;BME280_pressure;Samples;Min_cycle;Max_cycle;Signal;HPM_P1;HPM_P2
2021/10/06 00:01:59;;;;;;;7.05;3.00;;;;;;;13.75;70.41;99637.03;5073872;28;20063;-64
2021/10/06 00:04:27;;;;;;;4.13;2.53;;;;;;;13.86;69.32;99643.78;5073562;28;20060;-64
2021/10/06 00:06:54;;;;;;;5.15;3.08;;;;;;;13.80;68.92;99650.78;5074358;28;20052;-64
2021/10/06 00:09:23;;;;;;;5.85;2.72;;;;;;;13.69;69.33;99644.91;5073718;28;20060;-64
2021/10/06 00:11:51;;;;;;;5.40;3.42;;;;;;;13.80;68.28;99648.00;5074200;28;20052;-64
2021/10/06 00:14:19;;;;;;;5.45;2.70;;;;;;;13.73;69.35;99651.41;5073944;28;20068;-64
2021/10/06 00:16:47;;;;;;;7.60;2.95;;;;;;;13.72;69.00;99654.56;5074110;28;20506;-64
2021/10/06 00:19:15;;;;;;;5.15;2.70;;;;;;;13.76;68.77;99647.88;5073915;28;20052;-64
2021/10/06 00:21:45;;;;;;;6.90;3.13;;;;;;;13.63;69.33;99653.88;5073982;28;20056;-64
2021/10/06 00:24:13;;;;;;;7.07;3.33;;;;;;;13.73;69.21;99653.38;5073166;28;20059;-64
2021/10/06 00:26:42;;;;;;;6.00;3.45;;;;;;;13.74;69.38;99658.63;5073534;28;20060;-64
2021/10/06 00:29:09;;;;;;;6.30;3.20;;;;;;;13.64;69.40;99661.13;5073770;28;20063;-64
2021/10/06 00:31:37;;;;;;;6.35;3.65;;;;;;;13.54;69.68;99660.47;5073138;28;20056;-64
2021/10/06 00:34:04;;;;;;;5.72;3.28;;;;;;;13.66;68.42;99654.00;5073456;28;20083;-64
2021/10/06 00:36:31;;;;;;;7.18;3.33;;;;;;;13.65;69.20;99652.38;5073473;28;20079;-64
2021/10/06 00:38:59;;;;;;;6.65;3.67;;;;;;;13.67;69.07;99666.81;5073132;28;20060;-63
2021/10/06 00:41:26;;;;;;;9.23;3.50;;;;;;;13.49;69.32;99662.69;5072839;28;20052;-64
2021/10/06 00:43:55;;;;;;;6.28;3.72;;;;;;;13.35;70.14;99658.25;5073650;28;20060;-64
2021/10/06 00:46:22;;;;;;;6.18;3.67;;;;;;;13.43;69.69;99664.09;5073067;28;20063;-64
2021/10/06 00:48:50;;;;;;;6.45;3.53;;;;;;;13.25;69.74;99666.31;5073563;28;20056;-64
2021/10/06 00:51:17;;;;;;;6.70;2.97;;;;;;;13.20;70.30;99656.19;5072969;28;20402;-64
2021/10/06 00:53:45;;;;;;;4.93;3.42;;;;;;;13.21;70.25;99663.41;5072925;28;20075;-64
2021/10/06 00:56:15;;;;;;;6.32;3.53;;;;;;;13.26;69.75;99671.53;5072380;28;20052;-64
2021/10/06 00:58:44;;;;;;;6.03;3.58;;;;;;;13.00;70.13;99671.94;5072717;28;20055;-64
2021/10/06 01:01:14;;;;;;;5.18;3.08;;;;;;;13.16;69.67;99675.63;5072784;28;20053;-64
2021/10/06 01:03:41;;;;;;;6.53;2.80;;;;;;;13.00;70.37;99675.53;5072518;28;20499;-64
2021/10/06 01:06:08;;;;;;;6.60;2.83;;;;;;;13.00;70.33;99675.53;5072985;28;20060;-64
2021/10/06 01:08:36;;;;;;;5.57;2.50;;;;;;;12.86;70.72;99680.66;5072459;28;20056;-64
2021/10/06 01:11:04;;;;;;;5.00;2.60;;;;;;;12.83;70.41;99694.50;5072504;28;20052;-64
2021/10/06 01:13:32;;;;;;;8.75;3.47;;;;;;;12.73;71.07;99682.66;5072946;28;20063;-64
2021/10/06 01:16:00;;;;;;;4.82;2.17;;;;;;;12.85;70.64;99676.25;5072852;28;20068;-64
2021/10/06 01:18:28;;;;;;;6.47;2.15;;;;;;;12.89;70.83;99682.78;5072932;28;20063;-64
2021/10/06 01:20:56;;;;;;;6.72;2.40;;;;;;;12.83;70.68;99673.00;5072991;28;20056;-64
2021/10/06 01:23:25;;;;;;;5.38;1.95;;;;;;;12.70;70.66;99685.31;5072424;28;20060;-64
2021/10/06 01:25:52;;;;;;;6.57;2.10;;;;;;;12.59;70.87;99691.34;5072808;28;20525;-64
2021/10/06 01:28:20;;;;;;;6.93;1.90;;;;;;;12.65;71.02;99700.34;5072847;28;20063;-64
2021/10/06 01:30:47;;;;;;;4.93;1.70;;;;;;;12.59;71.23;99691.34;5072667;28;20052;-64
2021/10/06 01:33:15;;;;;;;4.22;1.90;;;;;;;12.55;71.06;99687.63;5072594;28;20138;-64
2021/10/06 01:35:42;;;;;;;4.47;1.88;;;;;;;12.63;70.92;99688.69;5072178;28;20079;-64
2021/10/06 01:38:10;;;;;;;6.15;1.90;;;;;;;12.58;71.40;99698.13;5072425;28;20052;-64
2021/10/06 01:40:39;;;;;;;3.60;1.98;;;;;;;12.66;71.11;99692.75;5072220;28;20060;-64
2021/10/06 01:43:06;;;;;;;7.20;3.20;;;;;;;12.61;71.24;99702.19;5072523;28;20071;-64
2021/10/06 01:45:37;;;;;;;5.82;2.00;;;;;;;12.59;71.46;99694.16;5071944;28;20470;-64
2021/10/06 01:48:06;;;;;;;5.30;2.20;;;;;;;12.66;71.11;99703.94;5072567;28;20052;-64
2021/10/06 01:50:33;;;;;;;7.25;2.42;;;;;;;12.72;70.94;99702.53;5071765;28;20049;-64
2021/10/06 01:53:01;;;;;;;7.35;2.67;;;;;;;12.75;70.60;99707.47;5072046;28;20079;-64
2021/10/06 01:55:34;;;;;;;4.45;1.92;;;;;;;12.68;70.60;99721.16;5071529;28;20418;-63
2021/10/06 01:58:05;;;;;;;7.30;3.00;;;;;;;12.77;70.68;99711.53;5071764;28;20060;-64
2021/10/06 02:00:33;;;;;;;5.10;2.45;;;;;;;12.55;70.61;99715.56;5072198;28;20071;-64
2021/10/06 02:03:01;;;;;;;7.45;2.67;;;;;;;12.57;70.83;99710.44;5072487;28;20052;-64
2021/10/06 02:05:28;;;;;;;5.55;2.67;;;;;;;12.68;70.69;99713.63;5071975;28;20071;-63
2021/10/06 02:07:55;;;;;;;4.93;3.00;;;;;;;12.77;70.37;99702.34;5072749;28;20060;-63
2021/10/06 02:10:23;;;;;;;7.65;2.58;;;;;;;12.86;70.38;99710.59;5072497;28;20057;-63
2021/10/06 02:12:51;;;;;;;6.07;2.70;;;;;;;12.83;70.26;99717.72;5072571;28;20056;-63
2021/10/06 02:15:19;;;;;;;7.95;4.00;;;;;;;12.92;69.54;99703.63;5071937;28;20059;-63
2021/10/06 02:17:47;;;;;;;6.50;2.90;;;;;;;12.75;70.38;99713.03;5073013;28;20056;-63
2021/10/06 02:20:14;;;;;;;5.68;2.50;;;;;;;12.97;69.66;99709.78;5072074;28;20475;-63
2021/10/06 02:22:44;;;;;;;5.53;2.80;;;;;;;12.98;70.07;99714.22;5072075;28;20057;-63
2021/10/06 02:25:11;;;;;;;4.55;2.40;;;;;;;12.90;70.33;99703.16;5072144;28;20078;-63
2021/10/06 02:27:39;;;;;;;6.60;2.72;;;;;;;12.91;69.52;99730.72;5072011;28;20063;-63
2021/10/06 02:30:08;;;;;;;6.53;2.42;;;;;;;13.13;69.52;99720.28;5072586;28;20067;-63
2021/10/06 02:32:37;;;;;;;7.68;2.72;;;;;;;13.00;69.23;99706.28;5072488;28;20487;-63
2021/10/06 02:35:07;;;;;;;6.43;2.30;;;;;;;13.10;68.70;99706.97;5072420;28;20060;-63
2021/10/06 02:37:34;;;;;;;6.50;2.83;;;;;;;12.96;68.55;99722.13;5071762;28;20063;-63
2021/10/06 02:40:02;;;;;;;6.15;2.75;;;;;;;13.01;68.65;99707.09;5071790;28;20411;-63
2021/10/06 02:42:35;;;;;;;6.45;2.40;;;;;;;13.06;68.42;99714.44;5071976;28;20052;-63
2021/10/06 02:45:03;;;;;;;9.23;2.70;;;;;;;13.07;68.54;99704.91;5072253;28;20061;-63
2021/10/06 02:47:30;;;;;;;6.50;2.70;;;;;;;13.05;68.02;99710.03;5072208;28;20053;-63
2021/10/06 02:49:59;;;;;;;5.88;2.63;;;;;;;12.93;68.29;99717.22;5072334;28;20071;-63
2021/10/06 02:52:26;;;;;;;7.60;2.67;;;;;;;12.83;69.04;99714.09;5072195;28;20438;-63
2021/10/06 02:54:54;;;;;;;7.95;2.72;;;;;;;12.69;68.88;99714.44;5071813;28;20056;-63
2021/10/06 02:57:21;;;;;;;5.57;2.55;;;;;;;12.78;69.40;99712.34;5072267;28;20060;-63
2021/10/06 02:59:49;;;;;;;7.85;2.50;;;;;;;12.63;69.25;99722.22;5071959;28;20068;-62
2021/10/06 03:02:16;;;;;;;6.43;2.72;;;;;;;12.61;69.44;99702.19;5071999;28;20056;-62
2021/10/06 03:04:44;;;;;;;7.25;2.42;;;;;;;12.55;69.26;99698.00;5071865;28;20055;-62
2021/10/06 03:07:12;;;;;;;6.80;2.92;;;;;;;12.61;69.87;99704.19;5072207;28;20060;-62
2021/10/06 03:09:40;;;;;;;7.18;2.85;;;;;;;12.51;70.14;99706.22;5076064;28;20057;-62
2021/10/06 03:12:07;;;;;;;9.05;2.85;;;;;;;12.51;70.31;99708.22;5063625;28;20048;-62
2021/10/06 03:14:37;;;;;;;9.73;2.47;;;;;;;12.31;70.51;99716.34;5074742;28;20418;-62
2021/10/06 03:17:04;;;;;;;5.13;2.25;;;;;;;12.41;70.16;99717.03;5071567;28;20067;-63
2021/10/06 03:19:32;;;;;;;5.57;2.15;;;;;;;12.33;70.75;99722.38;5075246;28;20057;-62
2021/10/06 03:21:59;;;;;;;4.00;2.00;;;;;;;12.43;70.72;99731.47;5075347;28;20056;-62
2021/10/06 03:24:30;;;;;;;5.20;2.05;;;;;;;12.54;70.18;99741.88;5074914;28;20049;-62
2021/10/06 03:26:57;;;;;;;5.72;1.88;;;;;;;12.55;70.34;99746.28;5075548;28;20071;-62
2021/10/06 03:29:24;;;;;;;4.00;1.60;;;;;;;12.57;70.20;99752.34;5075352;28;20052;-62
2021/10/06 03:31:52;;;;;;;5.28;1.73;;;;;;;12.53;70.09;99747.81;5075556;28;20486;-62
2021/10/06 03:34:19;;;;;;;4.15;1.33;;;;;;;12.54;70.54;99744.66;5075417;28;20052;-62
2021/10/06 03:36:47;;;;;;;6.82;1.75;;;;;;;12.29;71.10;99756.94;5074763;28;20056;-62
2021/10/06 03:39:14;;;;;;;8.02;2.63;;;;;;;12.28;71.19;99766.47;5074461;28;20048;-62
2021/10/06 03:41:43;;;;;;;7.13;1.90;;;;;;;12.44;70.91;99764.66;5075050;28;20060;-61
2021/10/06 03:44:10;;;;;;;5.75;1.75;;;;;;;12.54;70.34;99777.38;5075303;28;20383;-62
2021/10/06 03:46:37;;;;;;;6.88;1.63;;;;;;;12.21;71.14;99766.22;5075044;28;20398;-62
2021/10/06 03:49:05;;;;;;;6.20;1.80;;;;;;;12.37;71.26;99767.22;5075274;28;20109;-62
2021/10/06 03:51:32;;;;;;;7.43;1.83;;;;;;;12.43;70.27;99765.84;5074832;28;20053;-62
2021/10/06 03:53:59;;;;;;;7.63;2.28;;;;;;;12.44;70.43;99769.44;5074930;28;20052;-62
2021/10/06 03:56:27;;;;;;;3.83;1.63;;;;;;;12.42;70.17;99772.56;5074538;28;20055;-62
2021/10/06 03:58:56;;;;;;;4.75;1.67;;;;;;;12.31;70.86;99760.19;5075124;28;20060;-62
2021/10/06 04:01:23;;;;;;;4.03;1.60;;;;;;;12.37;70.70;99764.41;5074535;28;20048;-62
2021/10/06 04:03:50;;;;;;;5.20;1.58;;;;;;;12.28;71.19;99758.06;5074181;28;20490;-62
2021/10/06 04:06:17;;;;;;;4.57;1.75;;;;;;;12.19;71.05;99758.97;5074840;28;20060;-61
2021/10/06 04:08:45;;;;;;;6.90;1.92;;;;;;;12.24;70.98;99771.09;5074012;28;20079;-62
2021/10/06 04:11:12;;;;;;;4.90;1.98;;;;;;;12.18;71.14;99770.50;5074856;28;20409;-62
2021/10/06 04:13:39;;;;;;;6.60;1.70;;;;;;;12.07;71.16;99772.88;5074952;28;20063;-62
2021/10/06 04:16:08;;;;;;;4.57;1.50;;;;;;;12.18;70.99;99785.28;5074703;28;20127;-62
2021/10/06 04:18:35;;;;;;;6.30;1.70;;;;;;;12.22;70.83;99790.16;5074240;28;20487;-62
2021/10/06 04:21:03;;;;;;;5.25;1.90;;;;;;;12.19;70.62;99792.47;5073886;28;20049;-62
2021/10/06 04:23:30;;;;;;;4.47;1.90;;;;;;;12.31;70.61;99788.13;5073931;28;20052;-62
2021/10/06 04:25:58;;;;;;;4.90;1.50;;;;;;;12.24;70.69;99787.84;5074520;28;20067;-63
2021/10/06 04:28:25;;;;;;;5.88;1.80;;;;;;;12.38;69.80;99780.81;5074558;28;20056;-62
2021/10/06 04:30:52;;;;;;;7.22;1.80;;;;;;;12.47;69.37;99791.06;5074016;28;20056;-62
2021/10/06 04:33:21;;;;;;;5.13;1.38;;;;;;;12.42;69.74;99792.13;5074643;28;20060;-62
2021/10/06 04:35:48;;;;;;;5.63;1.60;;;;;;;12.61;68.67;99794.38;5074026;28;20111;-62
2021/10/06 04:38:16;;;;;;;4.28;1.90;;;;;;;12.64;69.24;99799.31;5074019;28;20060;-61
2021/10/06 04:40:43;;;;;;;7.50;1.90;;;;;;;12.49;69.04;99800.75;5073966;28;20053;-61
2021/10/06 04:43:11;;;;;;;5.38;1.83;;;;;;;12.58;69.04;99800.69;5073955;28;20056;-62
2021/10/06 04:45:39;;;;;;;4.03;1.70;;;;;;;12.66;68.22;99818.50;5073910;28;20056;-62
2021/10/06 04:48:06;;;;;;;4.28;1.55;;;;;;;12.64;67.73;99801.25;5074052;28;20052;-62
2021/10/06 04:50:35;;;;;;;4.93;1.52;;;;;;;12.69;67.75;99803.84;5073450;28;20052;-62
2021/10/06 04:53:04;;;;;;;4.30;1.52;;;;;;;12.59;68.46;99800.31;5073650;28;20057;-62
2021/10/06 04:55:32;;;;;;;4.95;1.75;;;;;;;12.43;68.93;99798.50;5073691;28;20414;-62
2021/10/06 04:57:59;;;;;;;5.93;1.52;;;;;;;12.48;68.82;99799.13;5073914;28;20515;-62
2021/10/06 05:00:26;;;;;;;4.20;1.63;;;;;;;12.60;68.71;99798.34;5073559;28;20064;-62
2021/10/06 05:02:54;;;;;;;5.45;1.70;;;;;;;12.68;68.44;99799.41;5073809;28;20053;-62
2021/10/06 05:05:21;;;;;;;6.75;1.42;;;;;;;12.74;68.14;99814.78;5073455;28;20501;-62
2021/10/06 05:07:50;;;;;;;3.63;2.00;;;;;;;12.75;67.63;99802.47;5073445;28;20056;-63
2021/10/06 05:10:17;;;;;;;4.43;1.70;;;;;;;12.50;68.63;99801.56;5073396;28;20053;-63
2021/10/06 05:12:45;;;;;;;7.15;1.80;;;;;;;12.61;67.86;99813.13;5071713;28;20056;-62
2021/10/06 05:15:12;;;;;;;2.80;1.13;;;;;;;12.52;68.35;99821.59;5073045;28;20052;-62
2021/10/06 05:17:40;;;;;;;4.43;1.58;;;;;;;12.72;67.19;99803.94;5073479;28;20510;-62
2021/10/06 05:20:09;;;;;;;9.77;1.67;;;;;;;12.69;67.67;99810.25;5073162;28;20056;-62
2021/10/06 05:22:36;;;;;;;4.47;1.38;;;;;;;12.66;67.30;99824.06;5073259;28;20486;-62
2021/10/06 05:25:06;;;;;;;4.05;1.30;;;;;;;12.75;67.26;99808.06;5071841;28;20475;-62
2021/10/06 05:27:33;;;;;;;;;;;;;;;12.69;67.39;99817.81;5072928;28;20052;-62
2021/10/06 05:30:01;;;;;;;4.47;1.52;;;;;;;12.75;67.58;99814.47;5072569;28;19931;-62
2021/10/06 05:32:28;;;;;;;6.20;1.40;;;;;;;12.83;67.02;99823.91;5070628;28;20060;-63
2021/10/06 05:34:58;;;;;;;6.03;1.33;;;;;;;12.73;67.00;99835.53;5070176;28;20052;-62
2021/10/06 05:37:25;;;;;;;3.33;1.17;;;;;;;12.70;66.49;99828.63;5072602;28;20056;-62
2021/10/06 05:39:55;;;;;;;5.22;1.80;;;;;;;12.78;67.22;99824.94;5071532;28;20063;-62
2021/10/06 05:42:24;;;;;;;2.92;1.20;;;;;;;12.78;66.73;99824.13;5072480;28;20458;-63
2021/10/06 05:44:51;;;;;;;5.22;1.20;;;;;;;12.89;66.47;99825.34;5072315;28;20060;-62
2021/10/06 05:47:18;;;;;;;4.50;1.60;;;;;;;12.94;66.04;99838.25;5073076;28;20056;-63
2021/10/06 05:49:46;;;;;;;4.88;1.42;;;;;;;12.90;65.46;99829.75;5072492;28;20048;-63
2021/10/06 05:52:13;;;;;;;5.22;1.10;;;;;;;12.84;65.78;99831.13;5072584;28;20501;-62
2021/10/06 05:54:41;;;;;;;4.50;1.20;;;;;;;12.99;65.48;99840.81;5072203;28;20067;-62
2021/10/06 05:57:08;;;;;;;3.25;1.20;;;;;;;13.02;65.53;99842.09;5071907;28;20060;-62
2021/10/06 05:59:37;;;;;;;4.45;1.30;;;;;;;13.00;65.47;99834.91;5072751;28;20063;-63
2021/10/06 06:02:05;;;;;;;6.00;1.37;;;;;;;13.03;65.24;99840.97;5071129;28;20471;-63
2021/10/06 06:04:33;;;;;;;3.67;1.33;;;;;;;12.96;65.78;99852.72;5070426;28;20490;-63
2021/10/06 06:07:01;;;;;;;3.60;1.30;;;;;;;13.14;65.20;99844.94;5071487;28;20060;-63
2021/10/06 06:09:29;;;;;;;4.07;1.10;;;;;;;13.14;65.02;99836.53;5070920;28;20056;-63
2021/10/06 06:11:56;;;;;;;4.00;1.13;;;;;;;13.15;64.87;99843.78;5070967;28;20919;-61
2021/10/06 06:14:23;;;;;;;3.78;1.23;;;;;;;13.05;64.64;99845.03;5072242;28;20079;-62
2021/10/06 06:16:52;;;;;;;5.32;1.50;;;;;;;13.13;64.47;99834.91;5071439;28;20068;-61
2021/10/06 06:19:19;;;;;;;3.55;1.25;;;;;;;13.21;63.86;99859.16;5072403;28;20056;-63
2021/10/06 06:21:47;;;;;;;5.78;1.20;;;;;;;13.26;63.64;99852.53;5070437;28;20044;-63
2021/10/06 06:24:14;;;;;;;7.65;1.67;;;;;;;13.17;63.36;99847.03;5071013;28;20049;-62
2021/10/06 06:26:42;;;;;;;3.10;1.10;;;;;;;13.22;63.41;99849.59;5071102;28;20053;-62
2021/10/06 06:29:09;;;;;;;4.30;1.33;;;;;;;13.25;63.24;99853.69;5069098;28;20075;-62
2021/10/06 06:31:37;;;;;;;6.32;1.85;;;;;;;13.19;63.52;99862.31;5072091;28;20057;-62
2021/10/06 06:34:05;;;;;;;6.60;1.50;;;;;;;13.24;63.25;99858.47;5071165;28;20067;-62
2021/10/06 06:36:33;;;;;;;6.20;1.33;;;;;;;13.24;63.07;99854.84;5070549;28;20407;-62
2021/10/06 06:39:00;;;;;;;4.25;1.30;;;;;;;13.24;63.02;99864.06;5064739;28;20507;-62
2021/10/06 06:41:28;;;;;;;4.68;1.38;;;;;;;13.24;63.18;99872.44;5071895;28;20052;-62
2021/10/06 06:43:55;;;;;;;2.92;1.08;;;;;;;13.16;62.77;99856.59;5074695;28;20056;-62
2021/10/06 06:46:22;;;;;;;4.65;1.38;;;;;;;13.20;63.26;99854.72;5073823;28;20495;-61
2021/10/06 06:48:50;;;;;;;5.22;1.60;;;;;;;13.22;63.02;99869.19;5074430;28;20056;-62
2021/10/06 06:51:18;;;;;;;3.25;1.17;;;;;;;13.25;63.07;99871.28;5075140;28;20159;-62
2021/10/06 06:53:46;;;;;;;4.22;1.15;;;;;;;13.22;62.79;99869.19;5070004;28;20059;-62
2021/10/06 06:56:13;;;;;;;3.88;1.20;;;;;;;13.21;63.06;99864.75;5075252;28;20048;-62
2021/10/06 06:58:41;;;;;;;5.15;1.30;;;;;;;13.36;62.95;99874.47;5075239;28;20107;-62
2021/10/06 07:01:08;;;;;;;6.53;1.63;;;;;;;13.15;63.70;99880.13;5072537;28;20048;-62
2021/10/06 07:03:35;;;;;;;5.07;1.50;;;;;;;13.32;63.45;99877.16;5075377;28;20049;-62
2021/10/06 07:06:03;;;;;;;2.88;1.02;;;;;;;13.34;66.03;99886.00;5075754;28;20064;-62
2021/10/06 07:08:32;;;;;;;6.07;1.40;;;;;;;13.20;66.21;99879.91;5075084;28;20066;-61
2021/10/06 07:10:59;;;;;;;;;;;;;;;13.14;65.58;99878.47;5061264;28;20434;-61
2021/10/06 07:13:27;;;;;;;5.20;1.58;;;;;;;13.12;66.21;99880.81;5072128;28;19924;-61
2021/10/06 07:15:54;;;;;;;4.95;1.33;;;;;;;13.05;66.37;99886.16;5064900;28;20057;-62
2021/10/06 07:18:22;;;;;;;4.00;1.45;;;;;;;13.05;66.89;99874.97;5058959;28;20072;-62
2021/10/06 07:20:51;;;;;;;4.43;1.58;;;;;;;13.22;65.61;99887.94;5059240;28;20056;-62
2021/10/06 07:23:22;;;;;;;;;;;;;;;13.02;66.97;99890.47;5066494;28;20581;-61
2021/10/06 07:25:50;;;;;;;4.65;1.30;;;;;;;13.07;67.98;99915.41;5068177;28;19920;-62
2021/10/06 07:28:18;;;;;;;3.65;1.40;;;;;;;13.04;67.48;99898.50;5072714;28;20773;-61
2021/10/06 07:30:45;;;;;;;6.80;1.60;;;;;;;13.06;67.77;99901.75;5066042;28;20056;-61
2021/10/06 07:33:12;;;;;;;4.78;1.95;;;;;;;13.18;67.50;99910.19;5065117;28;20053;-61
2021/10/06 07:35:40;;;;;;;5.53;1.58;;;;;;;13.27;67.09;99919.31;5065359;28;20064;-61
2021/10/06 07:38:08;;;;;;;6.85;1.83;;;;;;;13.14;67.72;99918.44;5068158;28;20131;-60
2021/10/06 07:40:35;;;;;;;5.75;1.90;;;;;;;13.18;67.14;99924.16;5052289;28;20059;-61
2021/10/06 07:43:04;;;;;;;4.63;1.42;;;;;;;13.19;67.47;99939.81;5069988;28;20063;-61
2021/10/06 07:45:32;;;;;;;5.32;1.60;;;;;;;13.03;67.87;99936.00;5064998;28;20414;-61
2021/10/06 07:47:59;;;;;;;8.27;1.90;;;;;;;12.82;70.67;99934.06;5073825;28;20079;-61
2021/10/06 07:50:27;;;;;;;8.35;2.47;;;;;;;12.71;71.20;99949.63;5061953;28;20068;-61
2021/10/06 07:52:54;;;;;;;6.80;2.10;;;;;;;12.74;72.32;99954.50;5056504;28;20395;-61
2021/10/06 07:55:23;;;;;;;4.43;2.17;;;;;;;12.49;73.51;99957.16;5063655;28;20083;-61
2021/10/06 07:57:52;;;;;;;6.32;1.85;;;;;;;12.33;74.78;99967.31;5069135;28;20073;-61
2021/10/06 08:00:21;;;;;;;6.00;1.77;;;;;;;12.46;73.25;99960.66;5061579;28;20053;-61
2021/10/06 08:02:48;;;;;;;7.15;2.53;;;;;;;12.38;73.05;99961.53;5058248;28;20500;-61
2021/10/06 08:05:16;;;;;;;6.93;2.40;;;;;;;12.28;74.22;99973.91;5062191;28;20059;-61
2021/10/06 08:07:43;;;;;;;7.68;2.05;;;;;;;12.13;73.35;99975.31;5062815;28;20059;-61
2021/10/06 08:10:14;;;;;;;7.38;1.88;;;;;;;12.27;72.92;99977.06;5059915;28;20057;-61
2021/10/06 08:12:41;;;;;;;4.90;1.77;;;;;;;12.57;71.49;99981.44;5069259;28;20057;-61
2021/10/06 08:15:09;;;;;;;4.00;1.30;;;;;;;12.48;70.22;99977.91;5069759;28;20065;-61
2021/10/06 08:17:38;;;;;;;3.78;1.30;;;;;;;12.31;71.36;99980.81;5069103;28;20052;-61
2021/10/06 08:20:06;;;;;;;4.10;1.75;;;;;;;12.24;71.18;99983.31;5055372;28;20057;-61
2021/10/06 08:22:34;;;;;;;2.97;1.73;;;;;;;12.42;71.80;99986.81;5067515;28;20060;-61
2021/10/06 08:25:01;;;;;;;4.72;1.60;;;;;;;12.49;71.05;99985.09;5065696;28;20060;-61
2021/10/06 08:27:28;;;;;;;4.78;1.95;;;;;;;12.44;70.15;99999.28;5070599;28;20396;-61
2021/10/06 08:29:56;;;;;;;3.05;1.50;;;;;;;12.39;70.07;99989.13;5061351;28;20048;-61
2021/10/06 08:32:23;;;;;;;3.05;1.48;;;;;;;12.68;68.96;99986.63;5071038;28;20123;-61
2021/10/06 08:34:53;;;;;;;4.00;2.00;;;;;;;12.64;69.30;99971.69;5067169;28;20132;-61
2021/10/06 08:37:21;;;;;;;4.18;1.85;;;;;;;12.86;68.63;99982.53;5051527;28;20496;-61
2021/10/06 08:39:48;;;;;;;3.10;1.50;;;;;;;12.87;69.57;99992.56;5067991;28;20056;-60
2021/10/06 08:42:16;;;;;;;3.35;1.60;;;;;;;12.76;69.20;99986.53;5070107;28;20060;-61
2021/10/06 08:44:46;;;;;;;6.45;1.90;;;;;;;12.96;68.58;99987.72;5069127;28;20063;-60
2021/10/06 08:47:14;;;;;;;5.32;1.95;;;;;;;13.06;68.90;99982.84;5065263;28;20483;-60
2021/10/06 08:49:44;;;;;;;3.80;1.30;;;;;;;13.28;67.07;99988.06;5066822;28;20063;-60
2021/10/06 08:52:13;;;;;;;5.65;1.60;;;;;;;13.10;67.62;99986.59;5070462;28;20064;-60
2021/10/06 08:54:40;;;;;;;4.25;1.58;;;;;;;13.10;68.35;99986.59;5069260;28;20057;-60
2021/10/06 08:57:15;;;;;;;3.40;1.50;;;;;;;13.17;67.42;99998.06;5064697;28;20490;-61
2021/10/06 08:59:42;;;;;;;3.13;1.40;;;;;;;13.04;67.61;99982.38;5065146;28;20488;-61
2021/10/06 09:02:13;;;;;;;4.32;1.60;;;;;;;13.21;67.60;100004.59;5064961;28;20052;-61
2021/10/06 09:04:41;;;;;;;4.13;1.60;;;;;;;13.32;67.94;100003.03;5063635;28;20052;-60
2021/10/06 09:07:09;;;;;;;3.75;1.35;;;;;;;13.18;68.29;100003.28;5061250;28;20061;-60
2021/10/06 09:09:39;;;;;;;5.65;1.40;;;;;;;12.94;68.13;100006.78;5066638;28;20772;-60
2021/10/06 09:12:11;;;;;;;4.32;1.50;;;;;;;13.17;69.63;100009.25;5069949;28;20065;-58
2021/10/06 09:14:42;;;;;;;5.78;2.20;;;;;;;13.26;67.74;100017.53;5065131;28;20064;-60
2021/10/06 09:17:12;;;;;;;3.45;1.20;;;;;;;13.28;67.85;100037.59;5065121;28;20056;-61
2021/10/06 09:19:41;;;;;;;;;;;;;;;13.25;67.26;100027.91;5059924;28;20059;-61
2021/10/06 09:22:13;;;;;;;5.68;1.60;;;;;;;13.17;68.35;100026.00;5066138;28;20252;-62
2021/10/06 09:25:02;;;;;;;3.33;1.20;;;;;;;13.16;67.84;100021.56;5061148;28;20488;-62
2021/10/06 09:27:31;;;;;;;5.03;1.48;;;;;;;13.59;66.38;100023.97;5061826;28;20067;-62
2021/10/06 09:30:00;;;;;;;4.07;1.65;;;;;;;14.37;65.26;100007.34;5059704;28;20052;-62
2021/10/06 09:32:29;;;;;;;3.83;1.75;;;;;;;15.37;61.37;100010.38;5058360;28;20048;-62
2021/10/06 09:35:07;;;;;;;5.47;1.75;;;;;;;15.29;59.86;100022.56;5069044;28;20066;-62
2021/10/06 09:37:35;;;;;;;4.22;1.40;;;;;;;15.21;60.77;100026.34;5062609;28;20064;-62
2021/10/06 09:40:07;;;;;;;2.05;1.13;;;;;;;14.86;59.87;100029.72;5068125;28;20060;-62
2021/10/06 09:42:42;;;;;;;3.58;1.23;;;;;;;14.65;59.66;100048.69;5054064;28;20064;-62
2021/10/06 09:45:10;;;;;;;4.43;1.30;;;;;;;14.39;62.29;100030.25;5064249;28;20518;-62
2021/10/06 09:47:37;;;;;;;5.43;1.23;;;;;;;14.33;61.96;100032.44;5067790;28;20060;-62
2021/10/06 09:50:06;;;;;;;2.25;1.00;;;;;;;14.24;62.29;100022.53;5070141;28;20053;-61
2021/10/06 09:52:34;;;;;;;3.40;1.10;;;;;;;14.65;60.91;100017.84;5066505;28;20414;-61
2021/10/06 09:55:03;;;;;;;3.00;1.17;;;;;;;15.16;61.83;100009.75;5064025;28;20068;-62
2021/10/06 09:57:33;;;;;;;3.58;1.23;;;;;;;14.73;64.01;100022.50;5058905;28;20048;-61
2021/10/06 10:00:04;;;;;;;5.78;1.55;;;;;;;14.97;63.62;100019.66;5063916;28;20064;-62
2021/10/06 10:02:31;;;;;;;5.07;1.60;;;;;;;14.71;65.68;100038.88;5069166;28;20056;-62
2021/10/06 10:04:59;;;;;;;2.20;1.10;;;;;;;14.85;62.55;100027.28;5066306;28;20044;-62
2021/10/06 10:07:27;;;;;;;4.60;1.33;;;;;;;14.61;64.77;100028.94;5061751;28;20061;-62
2021/10/06 10:09:55;;;;;;;3.17;1.00;;;;;;;15.11;62.69;100036.06;5055873;28;20045;-61
2021/10/06 10:12:24;;;;;;;4.57;1.63;;;;;;;14.80;63.70;100039.53;5055253;28;20156;-62
2021/10/06 10:14:54;;;;;;;3.85;1.40;;;;;;;14.97;63.35;100042.09;5062469;28;20056;-62
2021/10/06 10:17:24;;;;;;;;;;;;;;;14.91;61.40;100059.50;5059512;28;20052;-62
2021/10/06 10:19:58;;;;;;;4.63;1.25;;;;;;;15.36;61.82;100048.03;5067187;28;20375;-62
2021/10/06 10:22:28;;;;;;;4.25;1.20;;;;;;;15.44;59.63;100046.25;5071092;28;20048;-61
2021/10/06 10:24:55;;;;;;;4.00;1.20;;;;;;;15.44;60.35;100040.63;5053230;28;20075;-60
2021/10/06 10:27:24;;;;;;;3.33;1.30;;;;;;;15.12;61.30;100045.28;5057647;28;20497;-61
2021/10/06 10:30:04;;;;;;;3.42;1.02;;;;;;;15.18;61.87;100038.25;5056726;28;20061;-62
2021/10/06 10:32:43;;;;;;;3.10;1.00;;;;;;;15.12;61.84;100062.13;5060801;28;20057;-61
2021/10/06 10:35:11;;;;;;;4.67;1.40;;;;;;;15.13;64.05;100063.78;5057505;28;20060;-61
2021/10/06 10:38:08;;;;;;;2.47;1.00;;;;;;;15.31;61.65;100067.13;5066845;28;21027;-61
2021/10/06 10:40:47;;;;;;;1.70;1.20;;;;;;;16.01;59.35;100053.44;5061632;28;20056;-61
2021/10/06 10:43:17;;;;;;;2.70;1.15;;;;;;;16.12;58.72;100067.75;5064140;28;20064;-61
2021/10/06 10:46:05;;;;;;;3.78;0.95;;;;;;;16.82;57.68;100058.66;5058709;28;20056;-61
2021/10/06 10:48:39;;;;;;;1.70;0.90;;;;;;;16.31;58.61;100061.41;5059909;28;20061;-61
2021/10/06 10:51:10;;;;;;;2.20;1.17;;;;;;;16.62;58.73;100065.38;5054298;28;20438;-61
2021/10/06 10:54:02;;;;;;;2.25;0.93;;;;;;;16.72;56.89;100089.31;5067894;28;20057;-61
2021/10/06 10:56:48;;;;;;;2.67;0.85;;;;;;;16.03;60.38;100095.22;5046255;28;20127;-61
2021/10/06 10:59:17;;;;;;;3.92;1.20;;;;;;;15.76;61.82;100086.47;5065701;28;20067;-61
2021/10/06 11:01:52;;;;;;;1.95;0.90;;;;;;;14.83;63.02;100094.94;5069635;28;20060;-62
2021/10/06 11:04:23;;;;;;;5.07;1.13;;;;;;;14.81;64.30;100086.06;5068151;28;20048;-61
2021/10/06 11:06:54;;;;;;;2.40;1.30;;;;;;;14.68;65.30;100092.81;5070314;28;20059;-61
2021/10/06 11:09:45;;;;;;;2.58;1.10;;;;;;;14.21;65.63;100092.13;5068448;28;20438;-61
2021/10/06 11:12:40;;;;;;;1.80;1.10;;;;;;;14.29;66.75;100101.56;5055959;28;20079;-61
2021/10/06 11:15:36;;;;;;;2.88;1.02;;;;;;;14.34;65.37;100100.50;5067250;28;20056;-61
2021/10/06 11:18:21;;;;;;;4.13;1.20;;;;;;;14.08;67.27;100098.03;5059673;28;20387;-62
2021/10/06 11:21:04;;;;;;;2.60;1.05;;;;;;;13.92;68.88;100104.31;5061968;28;20072;-61
2021/10/06 11:23:45;;;;;;;1.27;1.00;;;;;;;13.99;69.28;100109.34;5065260;28;20052;-61
2021/10/06 11:26:16;;;;;;;1.92;1.00;;;;;;;14.19;68.99;100104.81;5056108;28;20495;-62
2021/10/06 11:28:45;;;;;;;1.73;0.88;;;;;;;13.88;69.30;100116.53;5068878;28;20419;-62
2021/10/06 11:31:14;;;;;;;2.55;1.30;;;;;;;13.91;70.75;100115.84;5068585;28;20510;-62
2021/10/06 11:33:43;;;;;;;1.35;0.90;;;;;;;13.83;71.17;100113.94;5068249;28;20063;-62
2021/10/06 11:36:14;;;;;;;1.93;0.90;;;;;;;13.90;70.94;100115.03;5062737;28;20060;-61
2021/10/06 11:38:44;;;;;;;2.15;0.98;;;;;;;14.06;71.39;100117.97;5062454;28;20988;-61
2021/10/06 11:41:11;;;;;;;;;;;;;;;13.92;70.92;100117.47;5067963;28;20067;-61
2021/10/06 11:43:40;;;;;;;1.88;0.85;;;;;;;13.86;70.68;100124.44;5069995;28;20398;-61